createdAt,value
2017-12-16T00:00:30.562Z,14.03
2017-12-16T00:02:59.337Z,12.50
2017-12-16T00:05:27.620Z,14.03
2017-12-16T00:07:55.880Z,13.63
2017-12-16T00:10:24.154Z,14.30
2017-12-16T00:12:52.425Z,13.80
2017-12-16T00:15:20.736Z,14.47
2017-12-16T00:17:49.060Z,14.27
2017-12-16T00:20:17.323Z,13.70
2017-12-16T00:22:45.608Z,13.73
2017-12-16T00:25:14.635Z,13.53
2017-12-16T00:27:43.684Z,13.30
2017-12-16T00:30:11.947Z,14.17
2017-12-16T00:32:40.181Z,13.80
2017-12-16T00:35:08.443Z,13.20
2017-12-16T00:37:37.511Z,14.00
2017-12-16T00:40:05.801Z,13.00
2017-12-16T00:42:34.042Z,13.00
2017-12-16T00:45:02.311Z,11.50
2017-12-16T00:47:30.562Z,14.83
2017-12-16T00:49:59.686Z,14.70
2017-12-16T00:52:27.963Z,14.70
2017-12-16T00:54:56.198Z,13.07
2017-12-16T00:57:25.231Z,13.63
2017-12-16T00:59:53.877Z,14.80
2017-12-16T01:02:23.038Z,13.93
2017-12-16T01:04:51.309Z,13.57
2017-12-16T01:07:19.587Z,14.17
2017-12-16T01:09:47.934Z,14.53
2017-12-16T01:12:16.971Z,13.13
2017-12-16T01:14:45.248Z,13.77
2017-12-16T01:17:13.495Z,13.33
2017-12-16T01:19:41.783Z,14.30
2017-12-16T01:22:10.037Z,13.40
2017-12-16T01:24:38.301Z,13.30
2017-12-16T01:27:07.691Z,13.10
2017-12-16T01:29:35.922Z,13.30
2017-12-16T01:32:04.186Z,13.77
2017-12-16T01:34:44.328Z,14.27
2017-12-16T01:37:25.314Z,14.10
2017-12-16T01:39:54.331Z,12.50
2017-12-16T01:42:22.578Z,13.47
2017-12-16T01:44:50.834Z,12.90
2017-12-16T01:47:19.863Z,12.63
2017-12-16T01:49:48.176Z,12.47
2017-12-16T01:52:16.441Z,13.17
2017-12-16T01:54:44.774Z,14.80
2017-12-16T01:57:13.778Z,13.00
2017-12-16T01:59:42.643Z,12.40
2017-12-16T02:02:11.683Z,12.17
2017-12-16T02:04:39.973Z,12.67
2017-12-16T02:07:08.242Z,13.07
2017-12-16T02:09:36.523Z,12.23
2017-12-16T02:12:04.769Z,14.87
2017-12-16T02:14:33.232Z,13.67
2017-12-16T02:17:01.493Z,13.17
2017-12-16T02:19:29.751Z,14.20
2017-12-16T02:21:58.043Z,13.50
2017-12-16T02:24:26.315Z,12.90
2017-12-16T02:26:55.533Z,12.27
2017-12-16T02:29:25.449Z,12.47
2017-12-16T02:31:54.619Z,12.53
2017-12-16T02:34:23.402Z,14.13
2017-12-16T02:36:51.691Z,12.30
2017-12-16T02:39:19.974Z,14.37
2017-12-16T02:41:48.245Z,15.27
2017-12-16T02:44:16.525Z,15.57
2017-12-16T02:46:44.795Z,16.00
2017-12-16T02:49:13.069Z,13.93
2017-12-16T02:51:41.352Z,14.40
2017-12-16T02:54:09.647Z,14.80
2017-12-16T02:56:39.415Z,14.20
2017-12-16T02:59:07.700Z,17.03
2017-12-16T03:01:35.956Z,15.13
2017-12-16T03:04:04.258Z,17.27
2017-12-16T03:06:33.390Z,15.33
2017-12-16T03:09:01.679Z,16.10
2017-12-16T03:11:29.934Z,13.00
2017-12-16T03:13:58.195Z,15.57
2017-12-16T03:16:26.463Z,16.43
2017-12-16T03:18:54.723Z,17.83
2017-12-16T03:21:23.020Z,16.50
2017-12-16T03:23:51.286Z,16.13
2017-12-16T03:26:19.578Z,18.30
2017-12-16T03:28:48.627Z,19.03
2017-12-16T03:31:17.648Z,17.30
2017-12-16T03:33:45.953Z,17.27
2017-12-16T03:36:15.637Z,21.80
2017-12-16T03:38:43.974Z,26.73
2017-12-16T03:41:12.997Z,26.00
2017-12-16T03:43:41.278Z,29.07
2017-12-16T03:46:09.557Z,30.30
2017-12-16T03:48:37.846Z,29.13
2017-12-16T03:51:06.112Z,27.60
2017-12-16T03:53:35.108Z,29.17
2017-12-16T03:56:03.386Z,28.53
2017-12-16T03:58:31.639Z,29.67
2017-12-16T04:00:59.942Z,29.80
2017-12-16T04:03:28.195Z,31.47
2017-12-16T04:05:57.406Z,29.17
2017-12-16T04:08:26.438Z,28.70
2017-12-16T04:10:54.682Z,30.37
2017-12-16T04:13:23.704Z,27.80
2017-12-16T04:15:51.958Z,32.70
2017-12-16T04:18:20.212Z,28.70
2017-12-16T04:20:49.243Z,30.90
2017-12-16T04:23:17.488Z,32.83
2017-12-16T04:25:46.530Z,34.80
2017-12-16T04:28:14.769Z,34.00
2017-12-16T04:30:43.043Z,30.57
2017-12-16T04:33:11.310Z,31.63
2017-12-16T04:35:39.543Z,33.07
2017-12-16T04:38:07.834Z,32.77
2017-12-16T04:40:36.077Z,32.80
2017-12-16T04:43:04.369Z,34.10
2017-12-16T04:45:32.623Z,33.67
2017-12-16T04:48:00.922Z,35.30
2017-12-16T04:50:29.186Z,36.23
2017-12-16T04:52:57.454Z,32.87
2017-12-16T04:55:25.945Z,35.43
2017-12-16T04:57:54.204Z,32.07
2017-12-16T05:00:23.235Z,35.20
2017-12-16T05:02:51.505Z,36.70
2017-12-16T05:05:19.776Z,32.93
2017-12-16T05:07:48.332Z,35.43
2017-12-16T05:10:17.343Z,33.37
2017-12-16T05:12:45.854Z,33.00
2017-12-16T05:15:14.205Z,33.73
2017-12-16T05:17:42.482Z,36.07
2017-12-16T05:20:11.604Z,36.23
2017-12-16T05:22:39.872Z,33.33
2017-12-16T05:25:08.146Z,33.20
2017-12-16T05:27:36.407Z,33.57
2017-12-16T05:30:05.413Z,30.87
2017-12-16T05:32:33.703Z,31.63
2017-12-16T05:35:01.987Z,31.17
2017-12-16T05:37:30.264Z,29.90
2017-12-16T05:39:58.526Z,28.93
2017-12-16T05:42:26.784Z,30.57
2017-12-16T05:44:55.793Z,29.20
2017-12-16T05:47:24.853Z,33.40
2017-12-16T05:49:53.108Z,32.70
2017-12-16T05:52:21.373Z,30.07
2017-12-16T05:54:49.634Z,31.57
2017-12-16T05:57:17.870Z,32.97
2017-12-16T05:59:46.148Z,30.87
2017-12-16T06:02:15.201Z,32.83
2017-12-16T06:04:43.508Z,32.00
2017-12-16T06:07:11.750Z,33.07
2017-12-16T06:09:40.009Z,34.00
2017-12-16T06:12:08.284Z,36.70
2017-12-16T06:14:36.539Z,35.63
2017-12-16T06:17:04.863Z,33.40
2017-12-16T06:19:33.114Z,38.67
2017-12-16T06:22:01.395Z,34.87
2017-12-16T06:24:29.646Z,36.67
2017-12-16T06:26:58.681Z,34.37
2017-12-16T06:29:26.992Z,35.10
2017-12-16T06:31:55.249Z,33.53
2017-12-16T06:34:23.523Z,32.83
2017-12-16T06:36:51.785Z,35.00
2017-12-16T06:39:20.324Z,34.10
2017-12-16T06:41:48.610Z,33.63
2017-12-16T06:44:16.845Z,33.97
2017-12-16T06:46:45.112Z,32.60
2017-12-16T06:49:13.340Z,35.50
2017-12-16T06:51:41.622Z,34.13
2017-12-16T06:54:10.699Z,33.00
2017-12-16T06:56:38.974Z,32.77
2017-12-16T06:59:08.154Z,37.73
2017-12-16T07:01:36.435Z,34.83
2017-12-16T07:04:04.737Z,35.17
2017-12-16T07:06:32.975Z,33.90
2017-12-16T07:09:01.975Z,34.57
2017-12-16T07:11:30.258Z,34.80
2017-12-16T07:13:58.490Z,33.67
2017-12-16T07:16:27.514Z,35.87
2017-12-16T07:18:55.790Z,35.70
2017-12-16T07:21:24.117Z,30.03
2017-12-16T07:23:53.145Z,31.77
2017-12-16T07:26:21.398Z,31.80
2017-12-16T07:28:50.474Z,27.57
2017-12-16T07:31:18.696Z,29.93
2017-12-16T07:33:47.018Z,27.20
2017-12-16T07:36:15.280Z,26.30
2017-12-16T07:38:44.424Z,24.00
2017-12-16T07:41:13.440Z,27.50
2017-12-16T07:43:41.715Z,25.90
2017-12-16T07:46:09.979Z,23.83
2017-12-16T07:48:38.993Z,26.03
2017-12-16T07:51:07.251Z,27.40
2017-12-16T07:53:36.289Z,29.20
2017-12-16T07:56:04.511Z,23.80
2017-12-16T07:58:33.578Z,22.67
2017-12-16T08:01:01.830Z,25.83
2017-12-16T08:03:30.106Z,27.70
2017-12-16T08:05:58.374Z,21.47
2017-12-16T08:08:26.713Z,22.90
2017-12-16T08:10:55.727Z,23.53
2017-12-16T08:13:24.042Z,23.60
2017-12-16T08:15:52.265Z,24.53
2017-12-16T08:18:21.295Z,23.73
2017-12-16T08:20:49.551Z,26.77
2017-12-16T08:23:18.562Z,21.60
2017-12-16T08:25:46.836Z,23.90
2017-12-16T08:28:15.104Z,23.20
2017-12-16T08:30:44.183Z,25.47
2017-12-16T08:33:12.437Z,23.80
2017-12-16T08:35:40.730Z,27.27
2017-12-16T08:38:08.989Z,27.40
2017-12-16T08:40:37.247Z,25.53
2017-12-16T08:43:05.506Z,26.70
2017-12-16T08:45:33.774Z,28.70
2017-12-16T08:48:02.051Z,24.97
2017-12-16T08:50:31.084Z,27.80
2017-12-16T08:52:59.390Z,28.70
2017-12-16T08:55:27.643Z,29.40
2017-12-16T08:57:55.902Z,26.10
2017-12-16T09:00:24.196Z,30.47
2017-12-16T09:02:52.841Z,31.70
2017-12-16T09:05:21.863Z,28.53
2017-12-16T09:07:50.112Z,28.10
2017-12-16T09:10:19.136Z,28.87
2017-12-16T09:12:47.454Z,28.90
2017-12-16T09:15:15.697Z,24.97
2017-12-16T09:17:43.937Z,27.80
2017-12-16T09:20:12.204Z,29.10
2017-12-16T09:22:40.468Z,25.00
2017-12-16T09:25:08.754Z,25.63
2017-12-16T09:27:36.999Z,24.30
2017-12-16T09:30:05.232Z,26.30
2017-12-16T09:32:33.509Z,25.07
2017-12-16T09:35:02.544Z,27.43
2017-12-16T09:37:30.806Z,24.70
2017-12-16T09:39:59.075Z,24.87
2017-12-16T09:42:27.335Z,23.80
2017-12-16T09:44:55.628Z,23.10
2017-12-16T09:47:23.835Z,24.03
2017-12-16T09:49:53.601Z,23.77
2017-12-16T09:52:21.851Z,21.23
2017-12-16T09:54:50.927Z,21.80
2017-12-16T09:57:19.196Z,22.77
2017-12-16T09:59:47.430Z,21.93
2017-12-16T10:02:15.725Z,21.30
2017-12-16T10:04:43.955Z,21.73
2017-12-16T10:07:12.993Z,20.13
2017-12-16T10:09:41.256Z,21.07
2017-12-16T10:12:09.562Z,21.90
2017-12-16T10:14:37.833Z,20.53
2017-12-16T10:17:06.122Z,17.80
2017-12-16T10:19:35.154Z,19.40
2017-12-16T10:22:04.189Z,21.93
2017-12-16T10:24:32.426Z,19.77
2017-12-16T10:27:01.460Z,21.03
2017-12-16T10:29:29.762Z,19.20
2017-12-16T10:31:58.024Z,18.63
2017-12-16T10:34:26.314Z,20.47
2017-12-16T10:36:54.554Z,19.60
2017-12-16T10:39:22.902Z,18.27
2017-12-16T10:41:51.153Z,19.40
2017-12-16T10:44:19.467Z,20.23
2017-12-16T10:46:48.490Z,18.07
2017-12-16T10:49:17.593Z,19.63
2017-12-16T10:51:46.634Z,17.60
2017-12-16T10:54:14.897Z,17.23
2017-12-16T10:56:43.171Z,16.80
2017-12-16T10:59:11.444Z,15.90
2017-12-16T11:01:39.677Z,17.50
2017-12-16T11:04:07.971Z,15.40
2017-12-16T11:06:36.235Z,17.80
2017-12-16T11:09:05.343Z,17.50
2017-12-16T11:11:33.616Z,16.33
2017-12-16T11:14:01.907Z,16.87
2017-12-16T11:16:30.158Z,17.30
2017-12-16T11:18:58.491Z,16.33
2017-12-16T11:21:26.748Z,15.50
2017-12-16T11:23:55.036Z,14.93
2017-12-16T11:26:23.343Z,14.77
2017-12-16T11:28:51.636Z,13.80
2017-12-16T11:31:19.955Z,15.77
2017-12-16T11:33:48.259Z,13.47
2017-12-16T11:36:16.505Z,13.90
2017-12-16T11:38:44.773Z,13.47
2017-12-16T11:41:14.705Z,14.67
2017-12-16T11:43:42.979Z,14.47
2017-12-16T11:46:11.291Z,15.40
2017-12-16T11:48:39.559Z,13.30
2017-12-16T11:51:07.800Z,14.80
2017-12-16T11:53:36.149Z,14.50
2017-12-16T11:56:04.417Z,14.50
2017-12-16T11:58:32.710Z,13.27
2017-12-16T12:01:00.971Z,12.33
2017-12-16T12:03:29.234Z,12.83
2017-12-16T12:05:57.506Z,14.87
2017-12-16T12:08:25.783Z,12.03
2017-12-16T12:10:55.623Z,13.43
2017-12-16T12:13:23.995Z,14.20
2017-12-16T12:15:53.057Z,13.60
2017-12-16T12:18:21.331Z,13.30
2017-12-16T12:20:52.132Z,12.33
2017-12-16T12:23:21.760Z,11.60
2017-12-16T12:25:52.018Z,13.33
2017-12-16T12:28:23.710Z,10.60
2017-12-16T12:30:52.778Z,9.47
2017-12-16T12:33:21.634Z,10.67
2017-12-16T12:35:54.511Z,10.60
2017-12-16T12:38:25.248Z,10.60
2017-12-16T12:40:58.460Z,12.50
2017-12-16T12:43:28.335Z,12.57
2017-12-16T12:45:57.456Z,12.20
2017-12-16T12:48:26.205Z,11.60
2017-12-16T12:50:55.599Z,10.60
2017-12-16T12:53:23.855Z,10.43
2017-12-16T12:55:52.131Z,12.30
2017-12-16T12:58:20.389Z,11.33
2017-12-16T13:00:48.621Z,11.53
2017-12-16T13:03:16.931Z,10.70
2017-12-16T13:05:45.232Z,9.90
2017-12-16T13:08:13.447Z,8.93
2017-12-16T13:10:42.542Z,9.27
2017-12-16T13:13:10.808Z,10.07
2017-12-16T13:15:39.077Z,11.27
2017-12-16T13:18:08.104Z,9.50
2017-12-16T13:20:36.353Z,9.33
2017-12-16T13:23:04.609Z,9.40
2017-12-16T13:25:33.390Z,9.40
2017-12-16T13:28:01.665Z,9.73
2017-12-16T13:30:29.948Z,8.20
2017-12-16T13:32:58.254Z,8.50
2017-12-16T13:35:26.963Z,8.80
2017-12-16T13:37:55.203Z,8.07
2017-12-16T13:40:23.515Z,8.60
2017-12-16T13:42:51.731Z,8.50
2017-12-16T13:45:20.854Z,8.77
2017-12-16T13:47:49.103Z,8.23
2017-12-16T13:50:17.372Z,8.13
2017-12-16T13:52:45.677Z,7.13
2017-12-16T13:55:13.932Z,7.97
2017-12-16T13:57:43.932Z,7.83
2017-12-16T14:00:13.633Z,7.50
2017-12-16T14:02:41.875Z,6.47
2017-12-16T14:05:10.316Z,6.00
2017-12-16T14:07:39.324Z,6.43
2017-12-16T14:10:07.606Z,6.93
2017-12-16T14:12:35.859Z,6.47
2017-12-16T14:15:05.074Z,7.00
2017-12-16T14:17:33.660Z,6.63
2017-12-16T14:20:02.222Z,6.67
2017-12-16T14:22:32.018Z,7.40
2017-12-16T14:25:00.335Z,7.07
2017-12-16T14:27:28.673Z,8.60
2017-12-16T14:29:56.925Z,5.90
2017-12-16T14:32:26.817Z,7.20
2017-12-16T14:34:55.056Z,6.13
2017-12-16T14:37:24.115Z,7.97
2017-12-16T14:39:52.399Z,5.67
2017-12-16T14:42:20.719Z,5.87
2017-12-16T14:44:49.161Z,5.60
2017-12-16T14:47:17.414Z,7.30
2017-12-16T14:49:45.686Z,6.43
2017-12-16T14:52:13.940Z,5.23
2017-12-16T14:54:42.215Z,5.80
2017-12-16T14:57:10.486Z,6.10
2017-12-16T14:59:38.801Z,6.70
2017-12-16T15:02:07.065Z,7.10
2017-12-16T15:04:35.290Z,6.90
2017-12-16T15:07:03.563Z,5.83
2017-12-16T15:09:31.844Z,6.67
2017-12-16T15:12:00.431Z,7.83
2017-12-16T15:14:28.696Z,5.63
2017-12-16T15:16:56.897Z,6.90
2017-12-16T15:19:25.962Z,6.20
2017-12-16T15:21:55.118Z,6.73
2017-12-16T15:24:24.133Z,7.10
2017-12-16T15:26:52.401Z,10.93
2017-12-16T15:29:20.710Z,7.83
2017-12-16T15:31:48.979Z,7.20
2017-12-16T15:34:17.232Z,7.20
2017-12-16T15:36:45.496Z,7.53
2017-12-16T15:39:13.763Z,6.57
2017-12-16T15:41:42.782Z,7.33
2017-12-16T15:44:11.082Z,10.07
2017-12-16T15:46:39.696Z,29.67
2017-12-16T15:49:07.956Z,12.33
2017-12-16T15:51:37.038Z,8.90
2017-12-16T15:54:05.289Z,8.97
2017-12-16T15:56:33.622Z,8.40
2017-12-16T15:59:01.914Z,10.33
2017-12-16T16:01:30.914Z,9.37
2017-12-16T16:04:00.182Z,10.10
2017-12-16T16:06:28.404Z,10.47
2017-12-16T16:08:56.668Z,10.63
2017-12-16T16:11:24.940Z,11.10
2017-12-16T16:13:53.977Z,10.67
2017-12-16T16:16:22.246Z,9.70
2017-12-16T16:18:50.503Z,11.40
2017-12-16T16:21:18.792Z,10.93
2017-12-16T16:23:47.072Z,9.80
2017-12-16T16:26:15.366Z,12.97
2017-12-16T16:28:44.384Z,10.03
2017-12-16T16:31:12.672Z,8.70
2017-12-16T16:33:40.935Z,9.17
2017-12-16T16:36:09.347Z,9.80
2017-12-16T16:38:37.601Z,9.40
2017-12-16T16:41:05.927Z,10.37
2017-12-16T16:43:34.951Z,10.93
2017-12-16T16:46:03.264Z,9.67
2017-12-16T16:48:31.571Z,8.33
2017-12-16T16:50:59.836Z,8.20
2017-12-16T16:53:28.924Z,9.90
2017-12-16T16:55:58.037Z,13.57
2017-12-16T16:58:27.084Z,7.80
2017-12-16T17:00:55.491Z,10.30
2017-12-16T17:03:23.760Z,8.20
2017-12-16T17:05:52.924Z,8.70
2017-12-16T17:08:21.220Z,7.13
2017-12-16T17:10:49.543Z,8.47
2017-12-16T17:13:17.872Z,7.87
2017-12-16T17:15:46.981Z,7.73
2017-12-16T17:18:15.290Z,6.53
2017-12-16T17:20:44.697Z,6.67
2017-12-16T17:23:13.060Z,6.87
2017-12-16T17:25:42.106Z,5.17
2017-12-16T17:28:11.220Z,5.80
2017-12-16T17:30:39.549Z,5.83
2017-12-16T17:33:08.607Z,6.10
2017-12-16T17:35:36.846Z,6.80
2017-12-16T17:38:05.174Z,7.17
2017-12-16T17:40:33.452Z,5.20
2017-12-16T17:43:01.747Z,4.93
2017-12-16T17:45:30.115Z,5.00
2017-12-16T17:47:58.414Z,4.73
2017-12-16T17:50:26.649Z,5.67
2017-12-16T17:52:55.005Z,4.77
2017-12-16T17:55:23.266Z,4.20
2017-12-16T17:57:52.315Z,5.73
2017-12-16T18:00:20.557Z,6.03
2017-12-16T18:02:48.870Z,4.33
2017-12-16T18:05:17.104Z,4.87
2017-12-16T18:07:45.360Z,4.70
2017-12-16T18:10:14.408Z,5.47
2017-12-16T18:12:42.664Z,6.40
2017-12-16T18:15:10.993Z,5.27
2017-12-16T18:17:39.275Z,8.50
2017-12-16T18:20:08.362Z,6.37
2017-12-16T18:22:36.645Z,5.83
2017-12-16T18:25:04.948Z,6.07
2017-12-16T18:27:34.007Z,6.57
2017-12-16T18:30:02.716Z,7.23
2017-12-16T18:32:32.358Z,6.20
2017-12-16T18:35:01.379Z,6.30
2017-12-16T18:37:29.618Z,6.40
2017-12-16T18:39:58.668Z,6.40
2017-12-16T18:42:27.025Z,7.20
2017-12-16T18:44:55.294Z,7.60
2017-12-16T18:47:23.617Z,6.40
2017-12-16T18:49:51.963Z,6.73
2017-12-16T18:52:20.274Z,6.30
2017-12-16T18:54:48.532Z,7.40
2017-12-16T18:57:16.833Z,6.07
2017-12-16T18:59:45.920Z,7.23
2017-12-16T19:02:14.307Z,7.50
2017-12-16T19:04:44.059Z,8.13
2017-12-16T19:07:12.397Z,8.37
2017-12-16T19:09:42.183Z,7.30
2017-12-16T19:12:10.439Z,8.90
2017-12-16T19:14:38.707Z,6.77
2017-12-16T19:17:07.003Z,10.00
2017-12-16T19:19:35.295Z,9.10
2017-12-16T19:22:04.084Z,9.40
2017-12-16T19:24:32.337Z,9.93
2017-12-16T19:27:00.635Z,10.43
2017-12-16T19:29:29.104Z,11.67
2017-12-16T19:31:57.416Z,11.57
2017-12-16T19:34:26.214Z,11.90
2017-12-16T19:36:54.497Z,11.37
2017-12-16T19:39:23.245Z,10.80
2017-12-16T19:41:51.543Z,13.93
2017-12-16T19:44:19.936Z,9.30
2017-12-16T19:46:48.187Z,9.27
2017-12-16T19:49:16.485Z,10.43
2017-12-16T19:51:46.298Z,9.63
2017-12-16T19:54:14.569Z,10.30
2017-12-16T19:56:42.846Z,11.30
2017-12-16T19:59:11.202Z,11.00
2017-12-16T20:01:39.621Z,12.30
2017-12-16T20:04:07.908Z,12.00
2017-12-16T20:06:36.506Z,12.93
2017-12-16T20:09:04.829Z,14.37
2017-12-16T20:11:33.220Z,13.87
2017-12-16T20:14:01.829Z,13.93
2017-12-16T20:16:30.149Z,15.30
2017-12-16T20:18:59.188Z,16.00
2017-12-16T20:21:27.499Z,16.33
2017-12-16T20:23:56.530Z,16.40
2017-12-16T20:26:25.060Z,16.07
2017-12-16T20:28:53.750Z,14.87
2017-12-16T20:31:23.160Z,14.50
2017-12-16T20:33:51.407Z,16.17
2017-12-16T20:36:20.032Z,16.70
2017-12-16T20:38:48.323Z,16.17
2017-12-16T20:41:17.216Z,14.50
2017-12-16T20:43:45.765Z,14.60
2017-12-16T20:46:15.887Z,13.80
2017-12-16T20:48:45.290Z,15.70
2017-12-16T20:51:13.976Z,15.83
2017-12-16T20:53:42.458Z,16.10
2017-12-16T20:56:11.568Z,14.20
2017-12-16T20:58:41.464Z,13.30
2017-12-16T21:01:10.875Z,13.60
2017-12-16T21:03:40.644Z,15.23
2017-12-16T21:06:09.383Z,11.70
2017-12-16T21:08:37.963Z,14.67
2017-12-16T21:11:06.369Z,16.03
2017-12-16T21:13:34.722Z,14.60
2017-12-16T21:16:03.170Z,14.67
2017-12-16T21:18:31.624Z,17.23
2017-12-16T21:20:59.972Z,17.30
2017-12-16T21:23:29.266Z,16.20
2017-12-16T21:25:57.607Z,18.30
2017-12-16T21:28:25.955Z,17.97
2017-12-16T21:30:54.222Z,19.17
2017-12-16T21:33:22.681Z,16.90
2017-12-16T21:35:51.201Z,18.67
2017-12-16T21:38:20.260Z,17.83
2017-12-16T21:40:48.582Z,18.70
2017-12-16T21:43:17.694Z,20.57
2017-12-16T21:45:46.227Z,17.67
2017-12-16T21:48:14.801Z,19.63
2017-12-16T21:50:43.104Z,17.80
2017-12-16T21:53:11.367Z,17.67
2017-12-16T21:55:39.968Z,19.30
2017-12-16T21:58:08.982Z,19.97
2017-12-16T22:00:37.248Z,19.20
2017-12-16T22:03:05.832Z,17.67
2017-12-16T22:05:34.168Z,17.20
2017-12-16T22:08:02.481Z,17.83
2017-12-16T22:10:30.715Z,18.40
2017-12-16T22:12:59.037Z,17.30
2017-12-16T22:15:28.098Z,19.20
2017-12-16T22:17:58.061Z,18.80
2017-12-16T22:20:27.209Z,18.57
2017-12-16T22:22:55.484Z,18.13
2017-12-16T22:25:23.783Z,20.20
2017-12-16T22:27:52.081Z,18.93
2017-12-16T22:30:20.356Z,20.30
2017-12-16T22:32:49.752Z,17.53
2017-12-16T22:35:18.132Z,18.43
2017-12-16T22:37:46.361Z,17.43
2017-12-16T22:40:14.616Z,17.33
2017-12-16T22:42:42.910Z,17.10
2017-12-16T22:45:11.226Z,18.10
2017-12-16T22:47:39.743Z,17.40
2017-12-16T22:50:08.753Z,16.77
2017-12-16T22:52:37.630Z,17.80
2017-12-16T22:55:05.895Z,19.03
2017-12-16T22:57:34.972Z,18.57
2017-12-16T23:00:04.890Z,20.00
2017-12-16T23:02:34.496Z,18.80
2017-12-16T23:05:03.088Z,16.20
2017-12-16T23:07:32.153Z,19.20
2017-12-16T23:10:00.452Z,18.70
2017-12-16T23:12:29.514Z,18.83
2017-12-16T23:14:58.615Z,16.47
2017-12-16T23:17:29.399Z,17.40
2017-12-16T23:19:57.692Z,16.47
2017-12-16T23:22:26.742Z,16.23
2017-12-16T23:24:55.043Z,18.40
2017-12-16T23:27:24.076Z,15.77
2017-12-16T23:29:52.340Z,14.60
2017-12-16T23:32:20.603Z,15.70
2017-12-16T23:34:48.955Z,12.80
2017-12-16T23:37:17.260Z,14.63
2017-12-16T23:39:46.337Z,14.53
2017-12-16T23:42:15.371Z,15.00
2017-12-16T23:44:43.648Z,15.20
2017-12-16T23:47:12.846Z,14.57
2017-12-16T23:49:41.197Z,10.67
2017-12-16T23:52:09.488Z,13.23
2017-12-16T23:54:38.532Z,13.10
2017-12-16T23:57:06.849Z,12.80
2017-12-16T23:59:35.906Z,17.03
